createdAt,value
2023-09-23T00:01:34.689Z,62.68
2023-09-23T00:06:36.710Z,61.70
2023-09-23T00:11:38.789Z,62.10
2023-09-23T00:16:41.051Z,61.80
2023-09-23T00:21:43.071Z,62.00
2023-09-23T00:26:45.332Z,62.29
2023-09-23T00:31:47.238Z,63.59
2023-09-23T00:36:49.294Z,63.16
2023-09-23T00:41:51.325Z,64.12
2023-09-23T00:46:53.416Z,63.91
2023-09-23T00:51:55.511Z,64.86
2023-09-23T00:57:01.796Z,65.84
2023-09-23T01:02:06.755Z,65.83
2023-09-23T01:07:10.843Z,65.46
2023-09-23T01:12:12.772Z,65.02
2023-09-23T01:17:16.279Z,65.40
2023-09-23T01:22:24.459Z,65.65
2023-09-23T01:27:26.517Z,65.98
2023-09-23T01:32:40.740Z,67.48
2023-09-23T01:37:43.276Z,68.68
2023-09-23T01:42:52.776Z,68.07
2023-09-23T01:47:58.289Z,67.68
2023-09-23T01:53:03.370Z,67.63
2023-09-23T01:58:06.916Z,67.18
2023-09-23T02:03:09.025Z,67.50
2023-09-23T02:08:11.935Z,67.49
2023-09-23T02:13:14.218Z,68.25
2023-09-23T02:18:16.213Z,69.09
2023-09-23T02:23:19.231Z,69.46
2023-09-23T02:28:21.584Z,69.93
2023-09-23T02:33:25.956Z,69.81
2023-09-23T02:38:32.416Z,69.53
2023-09-23T02:43:34.469Z,69.20
2023-09-23T02:48:36.500Z,69.74
2023-09-23T02:53:39.009Z,69.97
2023-09-23T02:58:41.669Z,70.26
2023-09-23T03:03:48.158Z,70.67
2023-09-23T03:08:55.359Z,70.95
2023-09-23T03:13:57.669Z,71.67
2023-09-23T03:19:12.650Z,71.96
2023-09-23T03:24:14.905Z,71.53
2023-09-23T03:29:19.779Z,71.20
2023-09-23T03:34:23.366Z,70.83
2023-09-23T03:39:26.368Z,71.24
2023-09-23T03:44:28.349Z,71.36
2023-09-23T03:49:31.438Z,71.65
2023-09-23T03:54:34.557Z,71.77
2023-09-23T03:59:37.293Z,72.27
2023-09-23T04:04:39.615Z,72.11
2023-09-23T04:09:41.658Z,72.56
2023-09-23T04:14:43.686Z,72.96
2023-09-23T04:19:45.746Z,73.45
2023-09-23T04:24:48.005Z,73.54
2023-09-23T04:29:50.220Z,73.17
2023-09-23T04:34:52.784Z,73.74
2023-09-23T04:39:56.307Z,73.88
2023-09-23T04:44:59.352Z,73.89
2023-09-23T04:50:01.603Z,74.98
2023-09-23T04:55:04.220Z,74.13
2023-09-23T05:00:10.458Z,74.66
2023-09-23T05:05:13.685Z,74.74
2023-09-23T05:10:15.980Z,75.27
2023-09-23T05:15:18.602Z,75.19
2023-09-23T05:20:21.692Z,75.13
2023-09-23T05:25:25.825Z,75.03
2023-09-23T05:30:28.638Z,75.02
2023-09-23T05:35:30.759Z,75.60
2023-09-23T05:40:37.929Z,75.94
2023-09-23T05:45:40.016Z,75.91
2023-09-23T05:50:42.101Z,75.82
2023-09-23T05:55:45.245Z,76.46
2023-09-23T06:00:48.262Z,75.96
2023-09-23T06:05:51.080Z,76.01
2023-09-23T06:10:53.700Z,76.31
2023-09-23T06:16:04.500Z,76.19
2023-09-23T06:21:08.205Z,76.55
2023-09-23T06:26:11.599Z,76.80
2023-09-23T06:31:13.931Z,76.71
2023-09-23T06:36:15.995Z,76.31
2023-09-23T06:41:18.081Z,76.14
2023-09-23T06:46:20.082Z,75.43
2023-09-23T06:51:21.950Z,75.74
2023-09-23T06:56:25.672Z,75.93
2023-09-23T07:01:28.155Z,76.98
2023-09-23T07:06:30.255Z,77.50
2023-09-23T07:11:32.733Z,77.28
2023-09-23T07:16:35.142Z,77.52
2023-09-23T07:21:37.126Z,77.89
2023-09-23T07:26:39.262Z,77.89
2023-09-23T07:31:41.231Z,77.59
2023-09-23T07:36:44.220Z,76.87
2023-09-23T07:41:46.231Z,77.02
2023-09-23T07:46:48.273Z,76.77
2023-09-23T07:51:50.791Z,75.84
2023-09-23T07:56:52.807Z,76.34
2023-09-23T08:01:55.011Z,76.05
2023-09-23T08:06:57.338Z,74.01
2023-09-23T08:11:59.800Z,73.37
2023-09-23T08:17:01.725Z,73.72
2023-09-23T08:22:03.693Z,72.99
2023-09-23T08:27:07.139Z,72.26
2023-09-23T08:32:09.247Z,71.03
2023-09-23T08:37:11.444Z,68.57
2023-09-23T08:42:13.646Z,65.99
2023-09-23T08:47:15.869Z,66.69
2023-09-23T08:52:18.658Z,62.75
2023-09-23T08:57:21.450Z,57.83
2023-09-23T09:02:27.092Z,53.37
2023-09-23T09:07:36.892Z,49.90
2023-09-23T09:12:39.333Z,50.59
2023-09-23T09:17:42.678Z,49.28
2023-09-23T09:22:46.853Z,48.31
2023-09-23T09:27:49.626Z,46.14
2023-09-23T09:32:53.070Z,45.71
2023-09-23T09:38:15.022Z,42.54
2023-09-23T09:43:21.453Z,41.66
2023-09-23T09:48:24.245Z,41.23
2023-09-23T09:53:26.816Z,39.63
2023-09-23T09:58:39.052Z,41.40
2023-09-23T10:03:45.849Z,39.36
2023-09-23T10:08:49.944Z,39.82
2023-09-23T10:13:52.175Z,38.36
2023-09-23T10:18:58.520Z,40.44
2023-09-23T10:24:01.657Z,36.14
2023-09-23T10:29:05.250Z,38.34
2023-09-23T10:34:17.286Z,36.82
2023-09-23T10:39:19.425Z,36.73
2023-09-23T10:44:25.856Z,35.82
2023-09-23T10:49:28.777Z,34.97
2023-09-23T10:54:30.603Z,36.12
2023-09-23T10:59:33.700Z,34.73
2023-09-23T11:04:35.716Z,33.73
2023-09-23T11:09:37.693Z,34.95
2023-09-23T11:14:51.498Z,33.90
2023-09-23T11:19:57.494Z,36.56
2023-09-23T11:24:59.816Z,36.31
2023-09-23T11:30:02.942Z,37.84
2023-09-23T11:35:05.721Z,37.79
2023-09-23T11:40:09.657Z,39.23
2023-09-23T11:45:13.163Z,38.26
2023-09-23T11:50:15.221Z,38.34
2023-09-23T11:55:17.942Z,39.48
2023-09-23T12:00:21.568Z,38.42
2023-09-23T12:05:30.098Z,38.72
2023-09-23T12:10:32.800Z,38.62
2023-09-23T12:15:35.617Z,39.92
2023-09-23T12:20:37.957Z,40.01
2023-09-23T12:25:40.352Z,39.56
2023-09-23T12:30:42.428Z,40.48
2023-09-23T12:35:44.575Z,41.39
2023-09-23T12:40:46.679Z,42.34
2023-09-23T12:45:49.965Z,39.94
2023-09-23T12:50:52.453Z,40.51
2023-09-23T12:55:54.435Z,41.58
2023-09-23T13:00:56.446Z,43.06
2023-09-23T13:05:58.605Z,41.83
2023-09-23T13:11:01.689Z,42.46
2023-09-23T13:16:04.416Z,40.45
2023-09-23T13:21:07.989Z,41.52
2023-09-23T13:26:09.979Z,40.88
2023-09-23T13:31:12.228Z,39.29
2023-09-23T13:36:14.293Z,40.19
2023-09-23T13:41:17.344Z,39.90
2023-09-23T13:46:20.060Z,42.65
2023-09-23T13:51:22.592Z,41.36
2023-09-23T13:56:25.267Z,43.63
2023-09-23T14:01:27.337Z,41.92
2023-09-23T14:06:30.535Z,40.93
2023-09-23T14:11:32.691Z,43.24
2023-09-23T14:16:34.937Z,39.18
2023-09-23T14:21:36.813Z,39.44
2023-09-23T14:26:38.929Z,39.18
2023-09-23T14:31:41.054Z,42.05
2023-09-23T14:36:43.549Z,42.65
2023-09-23T14:41:46.081Z,40.06
2023-09-23T14:46:48.317Z,40.46
2023-09-23T14:51:50.672Z,39.46
2023-09-23T14:56:52.738Z,39.82
2023-09-23T15:01:54.630Z,39.05
2023-09-23T15:06:56.796Z,38.18
2023-09-23T15:11:59.279Z,38.23
2023-09-23T15:17:01.372Z,37.53
2023-09-23T15:22:03.763Z,38.11
2023-09-23T15:27:05.675Z,41.67
2023-09-23T15:32:07.835Z,42.71
2023-09-23T15:37:09.712Z,37.17
2023-09-23T15:42:12.932Z,39.37
2023-09-23T15:47:15.407Z,41.29
2023-09-23T15:52:18.096Z,39.26
2023-09-23T15:57:20.325Z,37.16
2023-09-23T16:02:22.488Z,41.02
2023-09-23T16:07:24.573Z,38.80
2023-09-23T16:12:26.784Z,37.66
2023-09-23T16:17:28.975Z,38.32
2023-09-23T16:22:31.035Z,37.98
2023-09-23T16:27:34.501Z,39.73
2023-09-23T16:32:36.913Z,39.94
2023-09-23T16:37:39.021Z,39.88
2023-09-23T16:42:41.218Z,38.78
2023-09-23T16:47:45.454Z,39.33
2023-09-23T16:52:47.468Z,39.22
2023-09-23T16:57:49.590Z,43.11
2023-09-23T17:02:52.067Z,42.76
2023-09-23T17:07:54.413Z,40.35
2023-09-23T17:12:56.402Z,40.55
2023-09-23T17:17:58.467Z,40.23
2023-09-23T17:23:00.428Z,40.69
2023-09-23T17:28:02.647Z,42.99
2023-09-23T17:33:05.927Z,44.46
2023-09-23T17:38:08.125Z,43.71
2023-09-23T17:43:10.239Z,45.79
2023-09-23T17:48:13.598Z,47.65
2023-09-23T17:53:15.506Z,48.11
2023-09-23T17:58:17.351Z,49.44
2023-09-23T18:03:20.046Z,49.17
2023-09-23T18:08:22.419Z,50.14
2023-09-23T18:13:24.604Z,51.18
2023-09-23T18:18:28.640Z,50.45
2023-09-23T18:23:30.920Z,50.11
2023-09-23T18:28:33.083Z,50.75
2023-09-23T18:33:35.317Z,50.82
2023-09-23T18:38:37.559Z,52.30
2023-09-23T18:43:39.901Z,52.38
2023-09-23T18:48:42.037Z,52.47
2023-09-23T18:53:44.098Z,51.92
2023-09-23T18:58:46.095Z,52.46
2023-09-23T19:03:48.478Z,51.85
2023-09-23T19:08:51.644Z,51.33
2023-09-23T19:13:53.747Z,51.29
2023-09-23T19:18:55.771Z,51.76
2023-09-23T19:23:58.471Z,52.06
2023-09-23T19:29:00.671Z,53.44
2023-09-23T19:34:02.861Z,53.63
2023-09-23T19:39:05.031Z,54.55
2023-09-23T19:44:07.228Z,57.00
2023-09-23T19:49:09.401Z,58.14
2023-09-23T19:54:12.130Z,58.10
2023-09-23T19:59:14.084Z,58.14
2023-09-23T20:04:16.020Z,57.57
2023-09-23T20:09:18.197Z,57.52
2023-09-23T20:14:20.764Z,56.97
2023-09-23T20:19:22.793Z,57.61
2023-09-23T20:24:25.125Z,59.01
2023-09-23T20:29:27.127Z,59.48
2023-09-23T20:34:29.356Z,60.34
2023-09-23T20:39:31.690Z,60.58
2023-09-23T20:44:33.736Z,60.23
2023-09-23T20:49:35.834Z,60.27
2023-09-23T20:54:37.699Z,59.96
2023-09-23T20:59:39.858Z,61.22
2023-09-23T21:04:42.351Z,60.69
2023-09-23T21:09:44.450Z,60.97
2023-09-23T21:14:46.572Z,61.39
2023-09-23T21:19:48.650Z,61.47
2023-09-23T21:24:50.877Z,61.74
2023-09-23T21:29:52.882Z,61.54
2023-09-23T21:34:54.979Z,61.77
2023-09-23T21:39:57.000Z,61.66
2023-09-23T21:44:59.272Z,61.22
2023-09-23T21:50:09.686Z,61.47
2023-09-23T21:55:14.750Z,61.63
2023-09-23T22:00:29.625Z,61.89
2023-09-23T22:05:32.139Z,62.03
2023-09-23T22:10:34.261Z,63.12
2023-09-23T22:15:36.414Z,63.50
2023-09-23T22:20:39.532Z,63.51
2023-09-23T22:25:41.790Z,63.87
2023-09-23T22:30:46.110Z,64.27
2023-09-23T22:35:48.731Z,64.00
2023-09-23T22:40:51.217Z,64.33
2023-09-23T22:45:53.638Z,64.46
2023-09-23T22:50:56.144Z,64.54
2023-09-23T22:56:01.002Z,64.94
2023-09-23T23:01:06.844Z,64.73
2023-09-23T23:06:09.112Z,65.20
2023-09-23T23:11:11.746Z,65.60
2023-09-23T23:16:14.150Z,66.17
2023-09-23T23:21:16.464Z,66.36
2023-09-23T23:26:18.579Z,66.22
2023-09-23T23:31:22.000Z,66.48
2023-09-23T23:36:23.849Z,67.05
2023-09-23T23:41:27.275Z,67.17
2023-09-23T23:46:29.674Z,67.53
2023-09-23T23:51:31.771Z,68.31
2023-09-23T23:56:34.152Z,67.97
